sensor_id;sensor_type;location;lat;lon;timestamp;P1;durP1;ratioP1;P2;durP2;ratioP2
4290;SDS011;2159;50.906;7.152;2023-07-16T00:01:18;2.57;;;1.57;;
4290;SDS011;2159;50.906;7.152;2023-07-16T00:03:46;1.60;;;1.50;;
4290;SDS011;2159;50.906;7.152;2023-07-16T00:06:14;1.93;;;1.77;;
4290;SDS011;2159;50.906;7.152;2023-07-16T00:08:42;2.93;;;1.73;;
4290;SDS011;2159;50.906;7.152;2023-07-16T00:11:09;2.20;;;1.67;;
4290;SDS011;2159;50.906;7.152;2023-07-16T00:13:37;2.03;;;1.70;;
4290;SDS011;2159;50.906;7.152;2023-07-16T00:16:05;5.97;;;1.80;;
4290;SDS011;2159;50.906;7.152;2023-07-16T00:18:33;1.90;;;1.70;;
4290;SDS011;2159;50.906;7.152;2023-07-16T00:21:00;1.90;;;1.80;;
4290;SDS011;2159;50.906;7.152;2023-07-16T00:23:28;4.33;;;1.83;;
4290;SDS011;2159;50.906;7.152;2023-07-16T00:25:55;1.80;;;1.70;;
4290;SDS011;2159;50.906;7.152;2023-07-16T00:28:23;1.80;;;1.70;;
4290;SDS011;2159;50.906;7.152;2023-07-16T00:30:50;2.50;;;1.77;;
4290;SDS011;2159;50.906;7.152;2023-07-16T00:33:19;5.37;;;1.80;;
4290;SDS011;2159;50.906;7.152;2023-07-16T00:35:47;3.67;;;2.10;;
4290;SDS011;2159;50.906;7.152;2023-07-16T00:38:16;2.63;;;1.77;;
4290;SDS011;2159;50.906;7.152;2023-07-16T00:40:44;2.33;;;1.80;;
4290;SDS011;2159;50.906;7.152;2023-07-16T00:43:11;3.03;;;1.80;;
4290;SDS011;2159;50.906;7.152;2023-07-16T00:45:39;2.17;;;1.87;;
4290;SDS011;2159;50.906;7.152;2023-07-16T00:48:07;2.03;;;1.83;;
4290;SDS011;2159;50.906;7.152;2023-07-16T00:50:36;1.80;;;1.70;;
4290;SDS011;2159;50.906;7.152;2023-07-16T00:53:05;2.43;;;1.90;;
4290;SDS011;2159;50.906;7.152;2023-07-16T00:55:33;1.97;;;1.50;;
4290;SDS011;2159;50.906;7.152;2023-07-16T00:58:02;1.90;;;1.70;;
4290;SDS011;2159;50.906;7.152;2023-07-16T01:00:31;2.90;;;1.83;;
4290;SDS011;2159;50.906;7.152;2023-07-16T01:02:58;2.10;;;1.83;;
4290;SDS011;2159;50.906;7.152;2023-07-16T01:05:27;1.63;;;1.53;;
4290;SDS011;2159;50.906;7.152;2023-07-16T01:07:59;2.60;;;1.63;;
4290;SDS011;2159;50.906;7.152;2023-07-16T01:10:29;5.90;;;1.80;;
4290;SDS011;2159;50.906;7.152;2023-07-16T01:12:57;4.10;;;1.83;;
4290;SDS011;2159;50.906;7.152;2023-07-16T01:15:25;9.93;;;2.07;;
4290;SDS011;2159;50.906;7.152;2023-07-16T01:17:53;1.63;;;1.53;;
4290;SDS011;2159;50.906;7.152;2023-07-16T01:20:20;2.60;;;1.53;;
4290;SDS011;2159;50.906;7.152;2023-07-16T01:22:52;1.70;;;1.60;;
4290;SDS011;2159;50.906;7.152;2023-07-16T01:25:32;3.63;;;1.83;;
4290;SDS011;2159;50.906;7.152;2023-07-16T01:28:11;2.27;;;1.97;;
4290;SDS011;2159;50.906;7.152;2023-07-16T01:30:45;1.53;;;1.43;;
4290;SDS011;2159;50.906;7.152;2023-07-16T01:33:13;1.87;;;1.73;;
4290;SDS011;2159;50.906;7.152;2023-07-16T01:35:40;3.07;;;1.87;;
4290;SDS011;2159;50.906;7.152;2023-07-16T01:38:09;2.47;;;1.90;;
4290;SDS011;2159;50.906;7.152;2023-07-16T01:40:37;1.63;;;1.53;;
4290;SDS011;2159;50.906;7.152;2023-07-16T01:43:05;3.10;;;1.70;;
4290;SDS011;2159;50.906;7.152;2023-07-16T01:45:32;3.30;;;1.70;;
4290;SDS011;2159;50.906;7.152;2023-07-16T01:48:03;2.60;;;1.80;;
4290;SDS011;2159;50.906;7.152;2023-07-16T01:50:34;1.67;;;1.57;;
4290;SDS011;2159;50.906;7.152;2023-07-16T01:53:01;3.80;;;1.70;;
4290;SDS011;2159;50.906;7.152;2023-07-16T01:55:29;3.63;;;1.53;;
4290;SDS011;2159;50.906;7.152;2023-07-16T01:57:56;3.07;;;1.73;;
4290;SDS011;2159;50.906;7.152;2023-07-16T02:00:24;3.33;;;1.83;;
4290;SDS011;2159;50.906;7.152;2023-07-16T02:02:52;1.97;;;1.80;;
4290;SDS011;2159;50.906;7.152;2023-07-16T02:05:20;1.70;;;1.60;;
4290;SDS011;2159;50.906;7.152;2023-07-16T02:07:48;3.63;;;1.63;;
4290;SDS011;2159;50.906;7.152;2023-07-16T02:10:16;1.40;;;1.30;;
4290;SDS011;2159;50.906;7.152;2023-07-16T02:12:43;4.23;;;1.60;;
4290;SDS011;2159;50.906;7.152;2023-07-16T02:15:10;2.40;;;1.80;;
4290;SDS011;2159;50.906;7.152;2023-07-16T02:17:38;2.30;;;1.87;;
4290;SDS011;2159;50.906;7.152;2023-07-16T02:20:06;2.50;;;1.90;;
4290;SDS011;2159;50.906;7.152;2023-07-16T02:22:35;2.67;;;2.10;;
4290;SDS011;2159;50.906;7.152;2023-07-16T02:25:03;2.53;;;1.70;;
4290;SDS011;2159;50.906;7.152;2023-07-16T02:27:30;1.77;;;1.67;;
4290;SDS011;2159;50.906;7.152;2023-07-16T02:29:58;4.07;;;1.63;;
4290;SDS011;2159;50.906;7.152;2023-07-16T02:32:26;1.70;;;1.60;;
4290;SDS011;2159;50.906;7.152;2023-07-16T02:34:53;1.97;;;1.77;;
4290;SDS011;2159;50.906;7.152;2023-07-16T02:37:21;5.97;;;1.90;;
4290;SDS011;2159;50.906;7.152;2023-07-16T02:39:50;2.57;;;1.70;;
4290;SDS011;2159;50.906;7.152;2023-07-16T02:42:17;3.77;;;1.63;;
4290;SDS011;2159;50.906;7.152;2023-07-16T02:44:45;7.30;;;1.80;;
4290;SDS011;2159;50.906;7.152;2023-07-16T02:47:12;3.20;;;1.70;;
4290;SDS011;2159;50.906;7.152;2023-07-16T02:49:40;2.50;;;1.70;;
4290;SDS011;2159;50.906;7.152;2023-07-16T02:52:07;2.53;;;1.93;;
4290;SDS011;2159;50.906;7.152;2023-07-16T02:54:35;2.87;;;1.67;;
4290;SDS011;2159;50.906;7.152;2023-07-16T02:57:04;2.30;;;1.70;;
4290;SDS011;2159;50.906;7.152;2023-07-16T02:59:32;4.50;;;1.87;;
4290;SDS011;2159;50.906;7.152;2023-07-16T03:01:59;1.93;;;1.70;;
4290;SDS011;2159;50.906;7.152;2023-07-16T03:04:27;2.00;;;1.60;;
4290;SDS011;2159;50.906;7.152;2023-07-16T03:06:54;2.33;;;1.77;;
4290;SDS011;2159;50.906;7.152;2023-07-16T03:09:25;3.80;;;1.60;;
4290;SDS011;2159;50.906;7.152;2023-07-16T03:11:52;4.07;;;1.70;;
4290;SDS011;2159;50.906;7.152;2023-07-16T03:14:21;5.13;;;2.10;;
4290;SDS011;2159;50.906;7.152;2023-07-16T03:16:49;3.80;;;1.90;;
4290;SDS011;2159;50.906;7.152;2023-07-16T03:19:16;2.30;;;1.90;;
4290;SDS011;2159;50.906;7.152;2023-07-16T03:21:44;5.33;;;1.90;;
4290;SDS011;2159;50.906;7.152;2023-07-16T03:24:12;4.70;;;2.10;;
4290;SDS011;2159;50.906;7.152;2023-07-16T03:26:39;4.33;;;1.53;;
4290;SDS011;2159;50.906;7.152;2023-07-16T03:29:07;3.90;;;1.90;;
4290;SDS011;2159;50.906;7.152;2023-07-16T03:31:36;3.27;;;1.83;;
4290;SDS011;2159;50.906;7.152;2023-07-16T03:34:03;2.00;;;1.80;;
4290;SDS011;2159;50.906;7.152;2023-07-16T03:36:31;3.30;;;1.80;;
4290;SDS011;2159;50.906;7.152;2023-07-16T03:38:58;4.00;;;1.80;;
4290;SDS011;2159;50.906;7.152;2023-07-16T03:41:26;3.27;;;1.80;;
4290;SDS011;2159;50.906;7.152;2023-07-16T03:43:53;2.43;;;1.80;;
4290;SDS011;2159;50.906;7.152;2023-07-16T03:46:21;3.50;;;1.60;;
4290;SDS011;2159;50.906;7.152;2023-07-16T03:48:50;2.87;;;1.73;;
4290;SDS011;2159;50.906;7.152;2023-07-16T03:51:18;3.30;;;1.80;;
4290;SDS011;2159;50.906;7.152;2023-07-16T03:53:46;4.43;;;1.73;;
4290;SDS011;2159;50.906;7.152;2023-07-16T03:56:13;2.00;;;1.80;;
4290;SDS011;2159;50.906;7.152;2023-07-16T03:58:41;4.00;;;2.10;;
4290;SDS011;2159;50.906;7.152;2023-07-16T04:01:09;2.77;;;1.80;;
4290;SDS011;2159;50.906;7.152;2023-07-16T04:03:37;3.27;;;1.90;;
4290;SDS011;2159;50.906;7.152;2023-07-16T04:06:08;4.17;;;1.90;;
4290;SDS011;2159;50.906;7.152;2023-07-16T04:08:36;5.20;;;2.20;;
4290;SDS011;2159;50.906;7.152;2023-07-16T04:11:04;3.10;;;1.90;;
4290;SDS011;2159;50.906;7.152;2023-07-16T04:13:32;2.17;;;1.60;;
4290;SDS011;2159;50.906;7.152;2023-07-16T04:16:00;4.07;;;2.00;;
4290;SDS011;2159;50.906;7.152;2023-07-16T04:18:27;6.43;;;2.43;;
4290;SDS011;2159;50.906;7.152;2023-07-16T04:20:55;2.23;;;1.83;;
4290;SDS011;2159;50.906;7.152;2023-07-16T04:23:24;6.83;;;2.70;;
4290;SDS011;2159;50.906;7.152;2023-07-16T04:25:52;6.43;;;1.97;;
4290;SDS011;2159;50.906;7.152;2023-07-16T04:28:22;2.97;;;1.77;;
4290;SDS011;2159;50.906;7.152;2023-07-16T04:30:50;2.97;;;2.17;;
4290;SDS011;2159;50.906;7.152;2023-07-16T04:33:17;3.17;;;2.60;;
4290;SDS011;2159;50.906;7.152;2023-07-16T04:35:45;3.47;;;2.10;;
4290;SDS011;2159;50.906;7.152;2023-07-16T04:38:13;3.23;;;2.20;;
4290;SDS011;2159;50.906;7.152;2023-07-16T04:40:42;5.00;;;2.00;;
4290;SDS011;2159;50.906;7.152;2023-07-16T04:43:11;5.10;;;2.20;;
4290;SDS011;2159;50.906;7.152;2023-07-16T04:45:43;5.17;;;2.30;;
4290;SDS011;2159;50.906;7.152;2023-07-16T04:48:13;6.60;;;2.20;;
4290;SDS011;2159;50.906;7.152;2023-07-16T04:50:40;3.30;;;1.90;;
4290;SDS011;2159;50.906;7.152;2023-07-16T04:53:08;2.70;;;1.97;;
4290;SDS011;2159;50.906;7.152;2023-07-16T04:55:36;4.90;;;2.77;;
4290;SDS011;2159;50.906;7.152;2023-07-16T04:58:05;3.60;;;2.20;;
4290;SDS011;2159;50.906;7.152;2023-07-16T05:00:32;2.53;;;2.03;;
4290;SDS011;2159;50.906;7.152;2023-07-16T05:03:00;4.67;;;2.23;;
4290;SDS011;2159;50.906;7.152;2023-07-16T05:05:28;2.37;;;2.10;;
4290;SDS011;2159;50.906;7.152;2023-07-16T05:07:55;3.23;;;2.00;;
4290;SDS011;2159;50.906;7.152;2023-07-16T05:10:23;2.23;;;2.03;;
4290;SDS011;2159;50.906;7.152;2023-07-16T05:12:50;4.73;;;2.00;;
4290;SDS011;2159;50.906;7.152;2023-07-16T05:15:19;8.40;;;2.17;;
4290;SDS011;2159;50.906;7.152;2023-07-16T05:17:47;4.90;;;2.50;;
4290;SDS011;2159;50.906;7.152;2023-07-16T05:20:14;5.23;;;2.30;;
4290;SDS011;2159;50.906;7.152;2023-07-16T05:22:42;3.07;;;2.20;;
4290;SDS011;2159;50.906;7.152;2023-07-16T05:25:10;4.87;;;3.00;;
4290;SDS011;2159;50.906;7.152;2023-07-16T05:27:37;5.70;;;2.20;;
4290;SDS011;2159;50.906;7.152;2023-07-16T05:30:05;3.70;;;2.37;;
4290;SDS011;2159;50.906;7.152;2023-07-16T05:32:34;4.13;;;2.23;;
4290;SDS011;2159;50.906;7.152;2023-07-16T05:35:02;4.70;;;2.33;;
4290;SDS011;2159;50.906;7.152;2023-07-16T05:37:30;9.33;;;2.63;;
4290;SDS011;2159;50.906;7.152;2023-07-16T05:39:57;2.70;;;1.93;;
4290;SDS011;2159;50.906;7.152;2023-07-16T05:42:25;5.97;;;2.40;;
4290;SDS011;2159;50.906;7.152;2023-07-16T05:44:52;2.67;;;2.40;;
4290;SDS011;2159;50.906;7.152;2023-07-16T05:47:20;6.73;;;2.53;;
4290;SDS011;2159;50.906;7.152;2023-07-16T05:49:48;6.30;;;2.60;;
4290;SDS011;2159;50.906;7.152;2023-07-16T05:52:16;7.67;;;2.90;;
4290;SDS011;2159;50.906;7.152;2023-07-16T05:54:43;5.33;;;2.90;;
4290;SDS011;2159;50.906;7.152;2023-07-16T05:57:11;7.30;;;2.73;;
4290;SDS011;2159;50.906;7.152;2023-07-16T05:59:39;5.00;;;2.90;;
4290;SDS011;2159;50.906;7.152;2023-07-16T06:02:06;5.47;;;2.90;;
4290;SDS011;2159;50.906;7.152;2023-07-16T06:04:34;5.03;;;2.63;;
4290;SDS011;2159;50.906;7.152;2023-07-16T06:07:03;11.20;;;3.23;;
4290;SDS011;2159;50.906;7.152;2023-07-16T06:09:31;4.33;;;2.87;;
4290;SDS011;2159;50.906;7.152;2023-07-16T06:11:58;9.80;;;3.17;;
4290;SDS011;2159;50.906;7.152;2023-07-16T06:14:26;5.83;;;3.00;;
4290;SDS011;2159;50.906;7.152;2023-07-16T06:16:53;10.83;;;3.23;;
4290;SDS011;2159;50.906;7.152;2023-07-16T06:19:21;5.10;;;3.60;;
4290;SDS011;2159;50.906;7.152;2023-07-16T06:21:49;5.60;;;3.23;;
4290;SDS011;2159;50.906;7.152;2023-07-16T06:24:17;6.37;;;3.80;;
4290;SDS011;2159;50.906;7.152;2023-07-16T06:26:45;7.10;;;3.90;;
4290;SDS011;2159;50.906;7.152;2023-07-16T06:29:14;5.37;;;3.20;;
4290;SDS011;2159;50.906;7.152;2023-07-16T06:31:42;6.20;;;3.70;;
4290;SDS011;2159;50.906;7.152;2023-07-16T06:34:10;9.47;;;3.20;;
4290;SDS011;2159;50.906;7.152;2023-07-16T06:36:37;11.40;;;4.03;;
4290;SDS011;2159;50.906;7.152;2023-07-16T06:39:05;5.23;;;3.67;;
4290;SDS011;2159;50.906;7.152;2023-07-16T06:41:34;6.03;;;3.40;;
4290;SDS011;2159;50.906;7.152;2023-07-16T06:44:01;5.00;;;3.27;;
4290;SDS011;2159;50.906;7.152;2023-07-16T06:46:28;7.87;;;4.00;;
4290;SDS011;2159;50.906;7.152;2023-07-16T06:48:56;5.73;;;3.40;;
4290;SDS011;2159;50.906;7.152;2023-07-16T06:51:23;7.60;;;3.63;;
4290;SDS011;2159;50.906;7.152;2023-07-16T06:53:51;5.97;;;3.60;;
4290;SDS011;2159;50.906;7.152;2023-07-16T06:56:18;6.53;;;3.57;;
4290;SDS011;2159;50.906;7.152;2023-07-16T06:58:47;5.13;;;3.43;;
4290;SDS011;2159;50.906;7.152;2023-07-16T07:01:15;7.63;;;3.80;;
4290;SDS011;2159;50.906;7.152;2023-07-16T07:03:42;11.23;;;4.17;;
4290;SDS011;2159;50.906;7.152;2023-07-16T07:06:10;6.57;;;3.70;;
4290;SDS011;2159;50.906;7.152;2023-07-16T07:08:37;12.10;;;3.87;;
4290;SDS011;2159;50.906;7.152;2023-07-16T07:11:05;5.70;;;3.57;;
4290;SDS011;2159;50.906;7.152;2023-07-16T07:13:32;4.67;;;3.63;;
4290;SDS011;2159;50.906;7.152;2023-07-16T07:16:01;5.70;;;3.50;;
4290;SDS011;2159;50.906;7.152;2023-07-16T07:18:29;7.03;;;3.87;;
4290;SDS011;2159;50.906;7.152;2023-07-16T07:20:56;6.30;;;3.37;;
4290;SDS011;2159;50.906;7.152;2023-07-16T07:23:24;7.33;;;4.20;;
4290;SDS011;2159;50.906;7.152;2023-07-16T07:25:51;5.33;;;3.57;;
4290;SDS011;2159;50.906;7.152;2023-07-16T07:28:19;9.70;;;3.67;;
4290;SDS011;2159;50.906;7.152;2023-07-16T07:30:47;6.97;;;3.83;;
4290;SDS011;2159;50.906;7.152;2023-07-16T07:33:15;4.03;;;3.30;;
4290;SDS011;2159;50.906;7.152;2023-07-16T07:35:43;7.27;;;4.13;;
4290;SDS011;2159;50.906;7.152;2023-07-16T07:38:10;7.70;;;4.07;;
4290;SDS011;2159;50.906;7.152;2023-07-16T07:40:38;5.30;;;3.93;;
4290;SDS011;2159;50.906;7.152;2023-07-16T07:43:05;6.27;;;4.00;;
4290;SDS011;2159;50.906;7.152;2023-07-16T07:45:34;5.67;;;3.67;;
4290;SDS011;2159;50.906;7.152;2023-07-16T07:48:02;8.00;;;4.00;;
4290;SDS011;2159;50.906;7.152;2023-07-16T07:50:30;6.10;;;3.90;;
4290;SDS011;2159;50.906;7.152;2023-07-16T07:52:58;6.67;;;3.80;;
4290;SDS011;2159;50.906;7.152;2023-07-16T07:55:25;4.00;;;3.40;;
4290;SDS011;2159;50.906;7.152;2023-07-16T07:57:53;4.50;;;3.50;;
4290;SDS011;2159;50.906;7.152;2023-07-16T08:00:20;8.20;;;4.30;;
4290;SDS011;2159;50.906;7.152;2023-07-16T08:02:48;7.30;;;3.90;;
4290;SDS011;2159;50.906;7.152;2023-07-16T08:05:16;8.97;;;3.63;;
4290;SDS011;2159;50.906;7.152;2023-07-16T08:07:45;4.27;;;3.53;;
4290;SDS011;2159;50.906;7.152;2023-07-16T08:10:13;7.97;;;4.10;;
4290;SDS011;2159;50.906;7.152;2023-07-16T08:12:41;8.10;;;4.20;;
4290;SDS011;2159;50.906;7.152;2023-07-16T08:15:09;4.30;;;3.53;;
4290;SDS011;2159;50.906;7.152;2023-07-16T08:17:40;4.40;;;3.80;;
4290;SDS011;2159;50.906;7.152;2023-07-16T08:20:08;5.63;;;4.30;;
4290;SDS011;2159;50.906;7.152;2023-07-16T08:22:36;6.90;;;3.90;;
4290;SDS011;2159;50.906;7.152;2023-07-16T08:25:05;5.40;;;4.10;;
4290;SDS011;2159;50.906;7.152;2023-07-16T08:27:34;6.83;;;3.70;;
4290;SDS011;2159;50.906;7.152;2023-07-16T08:30:01;9.93;;;4.60;;
4290;SDS011;2159;50.906;7.152;2023-07-16T08:32:29;6.07;;;4.00;;
4290;SDS011;2159;50.906;7.152;2023-07-16T08:34:56;8.60;;;4.70;;
4290;SDS011;2159;50.906;7.152;2023-07-16T08:37:24;5.63;;;4.27;;
4290;SDS011;2159;50.906;7.152;2023-07-16T08:39:51;5.40;;;4.30;;
4290;SDS011;2159;50.906;7.152;2023-07-16T08:42:21;7.28;;;4.60;;
4290;SDS011;2159;50.906;7.152;2023-07-16T08:44:48;7.70;;;4.80;;
4290;SDS011;2159;50.906;7.152;2023-07-16T08:47:16;6.17;;;4.33;;
4290;SDS011;2159;50.906;7.152;2023-07-16T08:49:44;7.10;;;4.70;;
4290;SDS011;2159;50.906;7.152;2023-07-16T08:52:17;7.65;;;4.50;;
4290;SDS011;2159;50.906;7.152;2023-07-16T08:54:45;9.93;;;4.70;;
4290;SDS011;2159;50.906;7.152;2023-07-16T08:57:12;4.80;;;4.10;;
4290;SDS011;2159;50.906;7.152;2023-07-16T08:59:42;6.00;;;4.33;;
4290;SDS011;2159;50.906;7.152;2023-07-16T09:02:10;8.53;;;4.70;;
4290;SDS011;2159;50.906;7.152;2023-07-16T09:04:37;5.50;;;4.20;;
4290;SDS011;2159;50.906;7.152;2023-07-16T09:07:05;6.00;;;4.45;;
4290;SDS011;2159;50.906;7.152;2023-07-16T09:09:32;7.87;;;4.50;;
4290;SDS011;2159;50.906;7.152;2023-07-16T09:12:01;5.57;;;4.33;;
4290;SDS011;2159;50.906;7.152;2023-07-16T09:14:28;4.87;;;4.37;;
4290;SDS011;2159;50.906;7.152;2023-07-16T09:16:57;4.40;;;4.00;;
4290;SDS011;2159;50.906;7.152;2023-07-16T09:19:25;8.63;;;4.10;;
4290;SDS011;2159;50.906;7.152;2023-07-16T09:21:53;4.90;;;3.90;;
4290;SDS011;2159;50.906;7.152;2023-07-16T09:24:20;5.93;;;4.10;;
4290;SDS011;2159;50.906;7.152;2023-07-16T09:26:48;6.03;;;3.67;;
4290;SDS011;2159;50.906;7.152;2023-07-16T09:29:16;5.20;;;3.30;;
4290;SDS011;2159;50.906;7.152;2023-07-16T09:31:53;4.10;;;3.23;;
4290;SDS011;2159;50.906;7.152;2023-07-16T09:34:22;4.43;;;3.40;;
4290;SDS011;2159;50.906;7.152;2023-07-16T09:36:50;6.50;;;3.10;;
4290;SDS011;2159;50.906;7.152;2023-07-16T09:39:17;4.00;;;3.37;;
4290;SDS011;2159;50.906;7.152;2023-07-16T09:41:46;3.30;;;2.90;;
4290;SDS011;2159;50.906;7.152;2023-07-16T09:44:15;8.33;;;3.10;;
4290;SDS011;2159;50.906;7.152;2023-07-16T09:46:42;4.87;;;3.03;;
4290;SDS011;2159;50.906;7.152;2023-07-16T09:49:10;3.00;;;2.77;;
4290;SDS011;2159;50.906;7.152;2023-07-16T09:51:39;3.63;;;2.70;;
4290;SDS011;2159;50.906;7.152;2023-07-16T09:54:07;4.20;;;2.50;;
4290;SDS011;2159;50.906;7.152;2023-07-16T09:56:35;2.97;;;2.77;;
4290;SDS011;2159;50.906;7.152;2023-07-16T09:59:05;8.03;;;3.20;;
4290;SDS011;2159;50.906;7.152;2023-07-16T10:01:36;5.03;;;2.60;;
4290;SDS011;2159;50.906;7.152;2023-07-16T10:04:12;3.63;;;2.63;;
4290;SDS011;2159;50.906;7.152;2023-07-16T10:06:53;3.57;;;2.57;;
4290;SDS011;2159;50.906;7.152;2023-07-16T10:09:34;5.90;;;4.93;;
4290;SDS011;2159;50.906;7.152;2023-07-16T10:12:11;4.17;;;3.50;;
4290;SDS011;2159;50.906;7.152;2023-07-16T10:14:40;5.50;;;2.97;;
4290;SDS011;2159;50.906;7.152;2023-07-16T10:17:11;5.33;;;3.47;;
4290;SDS011;2159;50.906;7.152;2023-07-16T10:19:49;4.83;;;3.53;;
4290;SDS011;2159;50.906;7.152;2023-07-16T10:22:18;8.47;;;3.40;;
4290;SDS011;2159;50.906;7.152;2023-07-16T10:24:52;4.47;;;2.90;;
4290;SDS011;2159;50.906;7.152;2023-07-16T10:27:27;5.13;;;3.13;;
4290;SDS011;2159;50.906;7.152;2023-07-16T10:29:55;4.70;;;2.93;;
4290;SDS011;2159;50.906;7.152;2023-07-16T10:32:23;5.40;;;3.30;;
4290;SDS011;2159;50.906;7.152;2023-07-16T10:34:53;8.40;;;3.27;;
4290;SDS011;2159;50.906;7.152;2023-07-16T10:37:22;4.37;;;2.90;;
4290;SDS011;2159;50.906;7.152;2023-07-16T10:39:50;3.77;;;2.87;;
4290;SDS011;2159;50.906;7.152;2023-07-16T10:42:17;5.50;;;2.80;;
4290;SDS011;2159;50.906;7.152;2023-07-16T10:44:48;5.33;;;2.67;;
4290;SDS011;2159;50.906;7.152;2023-07-16T10:47:19;4.30;;;2.60;;
4290;SDS011;2159;50.906;7.152;2023-07-16T10:49:48;5.43;;;2.93;;
4290;SDS011;2159;50.906;7.152;2023-07-16T10:52:15;3.47;;;2.60;;
4290;SDS011;2159;50.906;7.152;2023-07-16T10:54:44;4.10;;;2.97;;
4290;SDS011;2159;50.906;7.152;2023-07-16T10:57:12;4.23;;;2.80;;
4290;SDS011;2159;50.906;7.152;2023-07-16T10:59:40;3.30;;;2.60;;
4290;SDS011;2159;50.906;7.152;2023-07-16T11:02:10;3.97;;;2.57;;
4290;SDS011;2159;50.906;7.152;2023-07-16T11:04:40;2.83;;;2.53;;
4290;SDS011;2159;50.906;7.152;2023-07-16T11:07:08;4.20;;;2.97;;
4290;SDS011;2159;50.906;7.152;2023-07-16T11:09:41;3.47;;;3.13;;
4290;SDS011;2159;50.906;7.152;2023-07-16T11:12:11;3.97;;;2.50;;
4290;SDS011;2159;50.906;7.152;2023-07-16T11:14:41;2.87;;;2.57;;
4290;SDS011;2159;50.906;7.152;2023-07-16T11:17:09;3.90;;;2.77;;
4290;SDS011;2159;50.906;7.152;2023-07-16T11:19:37;4.37;;;2.77;;
4290;SDS011;2159;50.906;7.152;2023-07-16T11:22:06;3.90;;;2.83;;
4290;SDS011;2159;50.906;7.152;2023-07-16T11:24:37;6.27;;;3.10;;
4290;SDS011;2159;50.906;7.152;2023-07-16T11:27:06;3.13;;;2.93;;
4290;SDS011;2159;50.906;7.152;2023-07-16T11:29:35;3.17;;;2.93;;
4290;SDS011;2159;50.906;7.152;2023-07-16T11:32:03;3.23;;;2.77;;
4290;SDS011;2159;50.906;7.152;2023-07-16T11:34:31;3.37;;;2.70;;
4290;SDS011;2159;50.906;7.152;2023-07-16T11:37:08;2.90;;;2.60;;
4290;SDS011;2159;50.906;7.152;2023-07-16T11:39:36;4.07;;;2.83;;
4290;SDS011;2159;50.906;7.152;2023-07-16T11:42:04;3.53;;;2.50;;
4290;SDS011;2159;50.906;7.152;2023-07-16T11:44:32;3.50;;;2.40;;
4290;SDS011;2159;50.906;7.152;2023-07-16T11:47:01;3.93;;;2.60;;
4290;SDS011;2159;50.906;7.152;2023-07-16T11:49:29;4.97;;;2.60;;
4290;SDS011;2159;50.906;7.152;2023-07-16T11:51:57;2.97;;;2.70;;
4290;SDS011;2159;50.906;7.152;2023-07-16T11:54:25;2.87;;;2.20;;
4290;SDS011;2159;50.906;7.152;2023-07-16T11:56:53;4.63;;;3.40;;
4290;SDS011;2159;50.906;7.152;2023-07-16T11:59:20;3.70;;;2.40;;
4290;SDS011;2159;50.906;7.152;2023-07-16T12:01:48;3.23;;;2.90;;
4290;SDS011;2159;50.906;7.152;2023-07-16T12:04:17;2.60;;;2.33;;
4290;SDS011;2159;50.906;7.152;2023-07-16T12:06:45;3.20;;;2.37;;
4290;SDS011;2159;50.906;7.152;2023-07-16T12:09:13;3.03;;;2.30;;
4290;SDS011;2159;50.906;7.152;2023-07-16T12:11:40;2.90;;;2.60;;
4290;SDS011;2159;50.906;7.152;2023-07-16T12:14:08;2.80;;;2.60;;
4290;SDS011;2159;50.906;7.152;2023-07-16T12:16:35;3.53;;;2.90;;
4290;SDS011;2159;50.906;7.152;2023-07-16T12:19:03;4.10;;;3.30;;
4290;SDS011;2159;50.906;7.152;2023-07-16T12:21:31;4.60;;;2.97;;
4290;SDS011;2159;50.906;7.152;2023-07-16T12:23:59;2.90;;;2.37;;
4290;SDS011;2159;50.906;7.152;2023-07-16T12:26:26;3.13;;;2.80;;
4290;SDS011;2159;50.906;7.152;2023-07-16T12:28:54;3.20;;;2.57;;
4290;SDS011;2159;50.906;7.152;2023-07-16T12:31:22;5.43;;;2.70;;
4290;SDS011;2159;50.906;7.152;2023-07-16T12:33:49;5.37;;;2.87;;
4290;SDS011;2159;50.906;7.152;2023-07-16T12:36:19;2.80;;;2.60;;
4290;SDS011;2159;50.906;7.152;2023-07-16T12:38:48;4.13;;;2.70;;
4290;SDS011;2159;50.906;7.152;2023-07-16T12:41:15;5.40;;;3.17;;
4290;SDS011;2159;50.906;7.152;2023-07-16T12:43:43;3.80;;;2.90;;
4290;SDS011;2159;50.906;7.152;2023-07-16T12:46:10;3.80;;;2.87;;
4290;SDS011;2159;50.906;7.152;2023-07-16T12:48:38;3.33;;;2.80;;
4290;SDS011;2159;50.906;7.152;2023-07-16T12:51:08;3.00;;;2.80;;
4290;SDS011;2159;50.906;7.152;2023-07-16T12:53:35;2.90;;;2.70;;
4290;SDS011;2159;50.906;7.152;2023-07-16T12:56:04;3.57;;;2.63;;
4290;SDS011;2159;50.906;7.152;2023-07-16T12:58:32;5.10;;;2.67;;
4290;SDS011;2159;50.906;7.152;2023-07-16T13:00:59;3.20;;;2.72;;
4290;SDS011;2159;50.906;7.152;2023-07-16T13:03:27;5.53;;;2.90;;
4290;SDS011;2159;50.906;7.152;2023-07-16T13:05:54;2.67;;;2.43;;
4290;SDS011;2159;50.906;7.152;2023-07-16T13:08:22;3.53;;;3.10;;
4290;SDS011;2159;50.906;7.152;2023-07-16T13:10:49;3.70;;;2.80;;
4290;SDS011;2159;50.906;7.152;2023-07-16T13:13:18;4.07;;;2.87;;
4290;SDS011;2159;50.906;7.152;2023-07-16T13:15:46;6.07;;;2.97;;
4290;SDS011;2159;50.906;7.152;2023-07-16T13:18:13;3.00;;;2.50;;
4290;SDS011;2159;50.906;7.152;2023-07-16T13:20:41;3.97;;;2.80;;
4290;SDS011;2159;50.906;7.152;2023-07-16T13:23:08;4.17;;;2.80;;
4290;SDS011;2159;50.906;7.152;2023-07-16T13:25:36;3.10;;;2.90;;
4290;SDS011;2159;50.906;7.152;2023-07-16T13:28:04;2.83;;;2.60;;
4290;SDS011;2159;50.906;7.152;2023-07-16T13:30:33;2.83;;;2.63;;
4290;SDS011;2159;50.906;7.152;2023-07-16T13:33:01;3.63;;;2.70;;
4290;SDS011;2159;50.906;7.152;2023-07-16T13:35:28;5.17;;;2.90;;
4290;SDS011;2159;50.906;7.152;2023-07-16T13:37:56;2.90;;;2.50;;
4290;SDS011;2159;50.906;7.152;2023-07-16T13:40:23;5.50;;;2.73;;
4290;SDS011;2159;50.906;7.152;2023-07-16T13:42:51;5.20;;;2.83;;
4290;SDS011;2159;50.906;7.152;2023-07-16T13:45:19;4.00;;;2.60;;
4290;SDS011;2159;50.906;7.152;2023-07-16T13:47:48;6.67;;;2.90;;
4290;SDS011;2159;50.906;7.152;2023-07-16T13:50:18;3.47;;;2.80;;
4290;SDS011;2159;50.906;7.152;2023-07-16T13:52:46;3.40;;;3.10;;
4290;SDS011;2159;50.906;7.152;2023-07-16T13:55:13;3.00;;;2.80;;
4290;SDS011;2159;50.906;7.152;2023-07-16T13:57:41;5.77;;;3.20;;
4290;SDS011;2159;50.906;7.152;2023-07-16T14:00:09;3.43;;;3.13;;
4290;SDS011;2159;50.906;7.152;2023-07-16T14:02:37;4.80;;;3.10;;
4290;SDS011;2159;50.906;7.152;2023-07-16T14:05:06;3.13;;;2.83;;
4290;SDS011;2159;50.906;7.152;2023-07-16T14:07:35;3.70;;;2.80;;
4290;SDS011;2159;50.906;7.152;2023-07-16T14:10:02;3.73;;;2.87;;
4290;SDS011;2159;50.906;7.152;2023-07-16T14:12:30;5.00;;;3.10;;
4290;SDS011;2159;50.906;7.152;2023-07-16T14:14:58;2.60;;;2.40;;
4290;SDS011;2159;50.906;7.152;2023-07-16T14:17:25;3.70;;;2.57;;
4290;SDS011;2159;50.906;7.152;2023-07-16T14:19:52;4.40;;;2.80;;
4290;SDS011;2159;50.906;7.152;2023-07-16T14:22:22;6.73;;;3.00;;
4290;SDS011;2159;50.906;7.152;2023-07-16T14:24:53;3.67;;;2.80;;
4290;SDS011;2159;50.906;7.152;2023-07-16T14:27:21;3.17;;;2.60;;
4290;SDS011;2159;50.906;7.152;2023-07-16T14:29:49;7.83;;;2.67;;
4290;SDS011;2159;50.906;7.152;2023-07-16T14:32:31;3.03;;;2.60;;
4290;SDS011;2159;50.906;7.152;2023-07-16T14:34:59;3.63;;;2.57;;
4290;SDS011;2159;50.906;7.152;2023-07-16T14:37:28;4.40;;;2.60;;
4290;SDS011;2159;50.906;7.152;2023-07-16T14:39:56;6.07;;;2.50;;
4290;SDS011;2159;50.906;7.152;2023-07-16T14:42:24;2.47;;;2.20;;
4290;SDS011;2159;50.906;7.152;2023-07-16T14:44:51;2.67;;;2.47;;
4290;SDS011;2159;50.906;7.152;2023-07-16T14:47:19;4.33;;;2.63;;
4290;SDS011;2159;50.906;7.152;2023-07-16T14:49:46;3.50;;;2.60;;
4290;SDS011;2159;50.906;7.152;2023-07-16T14:52:14;2.83;;;2.50;;
4290;SDS011;2159;50.906;7.152;2023-07-16T14:54:43;2.77;;;2.57;;
4290;SDS011;2159;50.906;7.152;2023-07-16T14:57:10;3.33;;;2.57;;
4290;SDS011;2159;50.906;7.152;2023-07-16T14:59:38;4.57;;;2.50;;
4290;SDS011;2159;50.906;7.152;2023-07-16T15:02:06;3.33;;;2.70;;
4290;SDS011;2159;50.906;7.152;2023-07-16T15:04:33;3.03;;;2.80;;
4290;SDS011;2159;50.906;7.152;2023-07-16T15:07:01;4.57;;;2.70;;
4290;SDS011;2159;50.906;7.152;2023-07-16T15:09:28;3.43;;;3.00;;
4290;SDS011;2159;50.906;7.152;2023-07-16T15:11:57;3.20;;;2.90;;
4290;SDS011;2159;50.906;7.152;2023-07-16T15:14:24;5.97;;;2.93;;
4290;SDS011;2159;50.906;7.152;2023-07-16T15:16:52;4.00;;;2.63;;
4290;SDS011;2159;50.906;7.152;2023-07-16T15:19:19;5.63;;;2.87;;
4290;SDS011;2159;50.906;7.152;2023-07-16T15:21:47;5.57;;;2.90;;